createdAt,value
2023-04-14T00:00:03.245Z,7.11
2023-04-14T00:02:40.104Z,7.31
2023-04-14T00:05:10.257Z,7.28
2023-04-14T00:07:37.794Z,7.13
2023-04-14T00:10:05.780Z,7.25
2023-04-14T00:12:33.268Z,7.04
2023-04-14T00:15:00.769Z,6.97
2023-04-14T00:17:28.275Z,7.06
2023-04-14T00:19:56.042Z,7.07
2023-04-14T00:22:24.853Z,7.04
2023-04-14T00:24:52.348Z,7.12
2023-04-14T00:27:19.862Z,7.05
2023-04-14T00:29:47.424Z,6.88
2023-04-14T00:32:14.932Z,6.83
2023-04-14T00:34:42.456Z,6.86
2023-04-14T00:37:10.466Z,6.92
2023-04-14T00:39:39.347Z,6.95
2023-04-14T00:42:06.888Z,6.73
2023-04-14T00:44:34.384Z,6.74
2023-04-14T00:47:02.290Z,6.68
2023-04-14T00:49:29.823Z,6.72
2023-04-14T00:51:57.550Z,6.71
2023-04-14T00:54:26.500Z,6.93
2023-04-14T00:56:57.390Z,7.05
2023-04-14T00:59:25.600Z,7.11
2023-04-14T01:01:53.306Z,7.06
2023-04-14T01:04:21.204Z,6.92
2023-04-14T01:06:48.782Z,6.76
2023-04-14T01:09:16.719Z,6.68
2023-04-14T01:11:51.718Z,6.73
2023-04-14T01:14:31.470Z,6.61
2023-04-14T01:17:02.971Z,6.61
2023-04-14T01:19:42.674Z,6.67
2023-04-14T01:22:11.062Z,6.73
2023-04-14T01:24:51.768Z,6.69
2023-04-14T01:27:33.705Z,6.65
2023-04-14T01:30:17.326Z,6.62
2023-04-14T01:32:47.504Z,6.64
2023-04-14T01:35:20.778Z,6.60
2023-04-14T01:37:49.887Z,6.58
2023-04-14T01:40:18.390Z,6.47
2023-04-14T01:42:48.851Z,6.59
2023-04-14T01:45:18.046Z,6.54
2023-04-14T01:47:47.554Z,6.52
2023-04-14T01:50:16.153Z,6.67
2023-04-14T01:52:44.449Z,6.87
2023-04-14T01:55:12.757Z,6.79
2023-04-14T01:57:44.043Z,6.83
2023-04-14T02:00:12.902Z,6.85
2023-04-14T02:02:44.520Z,6.69
2023-04-14T02:05:14.030Z,6.67
2023-04-14T02:07:43.901Z,6.93
2023-04-14T02:10:12.102Z,6.62
2023-04-14T02:12:44.146Z,6.73
2023-04-14T02:15:13.629Z,6.66
2023-04-14T02:17:41.650Z,6.63
2023-04-14T02:20:11.096Z,6.60
2023-04-14T02:22:40.041Z,6.63
2023-04-14T02:25:08.304Z,6.60
2023-04-14T02:27:38.359Z,6.61
2023-04-14T02:30:11.259Z,6.61
2023-04-14T02:32:40.923Z,6.38
2023-04-14T02:35:13.568Z,6.26
2023-04-14T02:37:45.393Z,6.28
2023-04-14T02:40:15.363Z,6.34
2023-04-14T02:42:48.030Z,6.20
2023-04-14T02:45:20.590Z,6.29
2023-04-14T02:47:53.838Z,6.20
2023-04-14T02:50:22.683Z,6.26
2023-04-14T02:53:05.653Z,6.15
2023-04-14T02:55:37.747Z,6.15
2023-04-14T02:58:05.965Z,6.15
2023-04-14T03:00:38.012Z,6.15
2023-04-14T03:03:06.837Z,6.21
2023-04-14T03:05:36.076Z,6.49
2023-04-14T03:08:12.230Z,6.25
2023-04-14T03:10:43.573Z,6.13
2023-04-14T03:13:12.395Z,6.04
2023-04-14T03:15:40.727Z,5.96
2023-04-14T03:18:08.645Z,5.86
2023-04-14T03:20:37.331Z,5.79
2023-04-14T03:23:06.046Z,5.78
2023-04-14T03:25:41.556Z,5.80
2023-04-14T03:28:16.400Z,5.79
2023-04-14T03:30:48.834Z,5.91
2023-04-14T03:33:20.788Z,5.91
2023-04-14T03:35:50.549Z,6.01
2023-04-14T03:38:19.190Z,5.99
2023-04-14T03:40:48.853Z,6.05
2023-04-14T03:43:22.737Z,6.23
2023-04-14T03:45:57.496Z,6.29
2023-04-14T03:48:27.246Z,6.26
2023-04-14T03:50:55.648Z,6.11
2023-04-14T03:53:23.451Z,5.98
2023-04-14T03:55:53.873Z,6.02
2023-04-14T03:58:22.302Z,6.01
2023-04-14T04:00:52.853Z,5.95
2023-04-14T04:03:21.775Z,5.99
2023-04-14T04:05:49.698Z,5.96
2023-04-14T04:08:19.118Z,5.93
2023-04-14T04:10:47.850Z,5.87
2023-04-14T04:13:18.725Z,5.82
2023-04-14T04:15:49.498Z,5.71
2023-04-14T04:18:18.234Z,5.63
2023-04-14T04:20:47.556Z,5.60
2023-04-14T04:23:17.572Z,5.61
2023-04-14T04:25:45.454Z,5.69
2023-04-14T04:28:22.778Z,5.56
2023-04-14T04:30:51.522Z,5.64
2023-04-14T04:33:19.354Z,5.61
2023-04-14T04:35:47.811Z,5.67
2023-04-14T04:38:15.421Z,5.65
2023-04-14T04:40:46.272Z,5.62
2023-04-14T04:43:23.966Z,5.67
2023-04-14T04:46:03.537Z,5.84
2023-04-14T04:48:31.366Z,5.80
2023-04-14T04:50:58.865Z,5.65
2023-04-14T04:53:26.342Z,5.82
2023-04-14T04:55:53.885Z,5.90
2023-04-14T04:58:21.368Z,5.85
2023-04-14T05:00:50.326Z,5.83
2023-04-14T05:03:18.075Z,5.91
2023-04-14T05:05:45.772Z,5.87
2023-04-14T05:08:15.053Z,5.84
2023-04-14T05:10:42.885Z,5.79
2023-04-14T05:13:10.450Z,5.93
2023-04-14T05:15:37.968Z,5.83
2023-04-14T05:18:06.990Z,5.70
2023-04-14T05:20:35.104Z,5.63
2023-04-14T05:23:03.137Z,5.60
2023-04-14T05:25:30.812Z,5.70
2023-04-14T05:27:58.337Z,5.74
2023-04-14T05:30:26.496Z,5.78
2023-04-14T05:32:54.019Z,5.82
2023-04-14T05:35:24.921Z,5.91
2023-04-14T05:37:52.512Z,5.88
2023-04-14T05:40:20.750Z,5.96
2023-04-14T05:42:48.270Z,6.07
2023-04-14T05:45:15.936Z,6.12
2023-04-14T05:47:43.892Z,6.12
2023-04-14T05:50:12.221Z,6.24
2023-04-14T05:52:41.137Z,6.31
2023-04-14T05:55:09.330Z,6.26
2023-04-14T05:57:36.920Z,6.36
2023-04-14T06:00:06.173Z,6.39
2023-04-14T06:02:40.763Z,6.38
2023-04-14T06:05:09.387Z,6.25
2023-04-14T06:07:37.303Z,6.36
2023-04-14T06:10:07.281Z,6.35
2023-04-14T06:12:34.871Z,6.43
2023-04-14T06:15:02.520Z,6.43
2023-04-14T06:17:30.032Z,6.43
2023-04-14T06:19:58.171Z,6.43
2023-04-14T06:22:29.213Z,6.53
2023-04-14T06:24:57.294Z,6.59
2023-04-14T06:27:26.222Z,6.56
2023-04-14T06:29:53.826Z,6.41
2023-04-14T06:32:21.506Z,6.53
2023-04-14T06:34:50.717Z,6.68
2023-04-14T06:37:19.565Z,6.80
2023-04-14T06:39:47.177Z,6.90
2023-04-14T06:42:15.425Z,6.81
2023-04-14T06:44:44.250Z,6.91
2023-04-14T06:47:11.769Z,7.02
2023-04-14T06:49:39.305Z,7.04
2023-04-14T06:52:07.345Z,7.11
2023-04-14T06:54:34.948Z,7.10
2023-04-14T06:57:03.020Z,7.15
2023-04-14T06:59:30.595Z,7.15
2023-04-14T07:01:59.632Z,7.04
2023-04-14T07:04:27.289Z,6.97
2023-04-14T07:06:54.767Z,7.04
2023-04-14T07:09:22.717Z,7.09
2023-04-14T07:11:50.272Z,7.04
2023-04-14T07:14:17.758Z,6.99
2023-04-14T07:16:45.309Z,7.06
2023-04-14T07:19:14.185Z,7.05
2023-04-14T07:21:41.809Z,7.03
2023-04-14T07:24:09.509Z,7.02
2023-04-14T07:26:37.417Z,7.15
2023-04-14T07:29:04.931Z,7.23
2023-04-14T07:31:34.514Z,7.28
2023-04-14T07:34:02.456Z,7.39
2023-04-14T07:36:33.216Z,7.46
2023-04-14T07:39:00.924Z,7.52
2023-04-14T07:41:28.888Z,7.56
2023-04-14T07:43:57.768Z,7.63
2023-04-14T07:46:25.425Z,7.62
2023-04-14T07:48:53.033Z,7.67
2023-04-14T07:51:20.707Z,7.64
2023-04-14T07:53:50.966Z,7.53
2023-04-14T07:56:18.476Z,7.66
2023-04-14T07:58:46.517Z,7.64
2023-04-14T08:01:14.169Z,7.72
2023-04-14T08:03:44.605Z,7.76
2023-04-14T08:06:13.192Z,7.75
2023-04-14T08:08:40.855Z,7.73
2023-04-14T08:11:09.801Z,7.74
2023-04-14T08:13:37.319Z,7.74
2023-04-14T08:16:05.004Z,7.77
2023-04-14T08:18:32.519Z,7.77
2023-04-14T08:21:00.013Z,7.78
2023-04-14T08:23:27.675Z,7.76
2023-04-14T08:25:55.458Z,7.82
2023-04-14T08:28:24.620Z,7.84
2023-04-14T08:30:52.169Z,7.86
2023-04-14T08:33:19.625Z,7.89
2023-04-14T08:35:47.124Z,7.95
2023-04-14T08:38:26.128Z,7.98
2023-04-14T08:40:56.254Z,8.04
2023-04-14T08:43:25.267Z,7.94
2023-04-14T08:45:53.398Z,7.95
2023-04-14T08:48:23.027Z,7.90
2023-04-14T08:50:59.306Z,7.91
2023-04-14T08:53:27.849Z,7.90
2023-04-14T08:55:58.065Z,7.91
2023-04-14T08:58:27.408Z,7.97
2023-04-14T09:00:55.130Z,8.04
2023-04-14T09:03:23.085Z,8.02
2023-04-14T09:05:51.249Z,8.01
2023-04-14T09:08:18.851Z,7.98
2023-04-14T09:10:46.688Z,7.94
2023-04-14T09:13:15.249Z,7.78
2023-04-14T09:15:44.583Z,7.63
2023-04-14T09:18:12.401Z,7.67
2023-04-14T09:20:41.307Z,7.63
2023-04-14T09:23:10.268Z,7.68
2023-04-14T09:25:39.269Z,7.64
2023-04-14T09:28:06.807Z,7.54
2023-04-14T09:30:34.479Z,7.57
2023-04-14T09:33:06.920Z,7.53
2023-04-14T09:35:44.564Z,7.56
2023-04-14T09:38:12.069Z,7.45
2023-04-14T09:40:39.984Z,7.35
2023-04-14T09:43:07.516Z,7.40
2023-04-14T09:45:42.592Z,7.50
2023-04-14T09:48:12.870Z,7.44
2023-04-14T09:51:00.901Z,7.62
2023-04-14T09:53:29.721Z,7.60
2023-04-14T09:55:57.760Z,7.74
2023-04-14T09:58:27.815Z,7.83
2023-04-14T10:00:57.129Z,7.71
2023-04-14T10:03:36.426Z,7.66
2023-04-14T10:06:07.344Z,7.67
2023-04-14T10:08:37.272Z,7.64
2023-04-14T10:11:18.875Z,7.59
2023-04-14T10:13:47.391Z,7.65
2023-04-14T10:16:15.592Z,7.61
2023-04-14T10:18:44.814Z,7.63
2023-04-14T10:21:12.573Z,7.69
2023-04-14T10:23:41.779Z,7.66
2023-04-14T10:26:10.105Z,7.63
2023-04-14T10:28:38.969Z,7.58
2023-04-14T10:31:09.193Z,7.63
2023-04-14T10:33:37.919Z,7.67
2023-04-14T10:36:07.277Z,7.74
2023-04-14T10:38:39.991Z,7.80
2023-04-14T10:41:07.850Z,7.84
2023-04-14T10:43:36.796Z,7.92
2023-04-14T10:46:06.429Z,7.92
2023-04-14T10:48:35.362Z,8.02
2023-04-14T10:51:04.210Z,8.04
2023-04-14T10:53:46.846Z,7.94
2023-04-14T10:56:14.357Z,7.87
2023-04-14T10:58:41.968Z,7.95
2023-04-14T11:01:26.183Z,8.07
2023-04-14T11:03:56.275Z,8.18
2023-04-14T11:06:49.333Z,8.25
2023-04-14T11:09:33.722Z,8.26
2023-04-14T11:12:07.297Z,8.30
2023-04-14T11:14:36.300Z,8.19
2023-04-14T11:17:05.126Z,8.20
2023-04-14T11:19:33.441Z,8.06
2023-04-14T11:22:01.038Z,8.15
2023-04-14T11:24:29.851Z,8.22
2023-04-14T11:26:57.913Z,8.23
2023-04-14T11:29:25.425Z,8.20
2023-04-14T11:32:03.472Z,8.10
2023-04-14T11:34:31.047Z,8.15
2023-04-14T11:36:58.568Z,7.98
2023-04-14T11:39:26.267Z,7.92
2023-04-14T11:41:56.036Z,7.95
2023-04-14T11:44:23.753Z,8.04
2023-04-14T11:46:51.576Z,7.98
2023-04-14T11:49:21.122Z,8.08
2023-04-14T11:51:49.678Z,8.05
2023-04-14T11:54:17.217Z,8.13
2023-04-14T11:56:44.911Z,8.18
2023-04-14T11:59:13.770Z,8.34
2023-04-14T12:01:41.299Z,8.30
2023-04-14T12:04:10.679Z,8.31
2023-04-14T12:06:39.080Z,8.35
2023-04-14T12:09:09.829Z,8.51
2023-04-14T12:11:39.520Z,8.54
2023-04-14T12:14:07.037Z,8.66
2023-04-14T12:16:36.172Z,8.73
2023-04-14T12:19:04.582Z,8.76
2023-04-14T12:21:32.311Z,8.86
2023-04-14T12:24:04.238Z,8.89
2023-04-14T12:26:32.641Z,8.97
2023-04-14T12:29:01.497Z,9.00
2023-04-14T12:31:30.324Z,9.02
2023-04-14T12:34:03.267Z,9.06
2023-04-14T12:36:48.143Z,9.03
2023-04-14T12:39:16.944Z,9.10
2023-04-14T12:41:44.519Z,9.17
2023-04-14T12:44:19.629Z,9.22
2023-04-14T12:46:50.001Z,9.11
2023-04-14T12:49:36.254Z,9.09
2023-04-14T12:52:04.531Z,9.11
2023-04-14T12:54:48.732Z,9.03
2023-04-14T12:57:16.238Z,8.93
2023-04-14T12:59:43.785Z,8.84
2023-04-14T13:02:11.397Z,8.93
2023-04-14T13:04:40.374Z,8.98
2023-04-14T13:07:07.868Z,8.77
2023-04-14T13:09:36.620Z,8.70
2023-04-14T13:12:04.368Z,8.74
2023-04-14T13:14:31.847Z,8.76
2023-04-14T13:16:59.448Z,8.69
2023-04-14T13:19:26.933Z,8.60
2023-04-14T13:21:56.111Z,8.68
2023-04-14T13:24:23.548Z,8.79
2023-04-14T13:26:51.817Z,8.85
2023-04-14T13:29:19.455Z,8.81
2023-04-14T13:31:46.981Z,8.96
2023-04-14T13:34:14.556Z,8.91
2023-04-14T13:36:42.126Z,8.84
2023-04-14T13:39:11.002Z,8.87
2023-04-14T13:41:38.562Z,8.89
2023-04-14T13:44:06.481Z,8.93
2023-04-14T13:46:40.830Z,8.92
2023-04-14T13:49:08.860Z,8.92
2023-04-14T13:51:36.324Z,9.05
2023-04-14T13:54:03.820Z,9.06
2023-04-14T13:56:32.784Z,9.12
2023-04-14T13:59:00.876Z,9.16
2023-04-14T14:01:28.562Z,9.27
2023-04-14T14:03:56.670Z,9.29
2023-04-14T14:06:24.409Z,9.36
2023-04-14T14:09:03.357Z,9.24
2023-04-14T14:11:35.793Z,9.11
2023-04-14T14:14:03.829Z,9.13
2023-04-14T14:16:37.109Z,9.29
2023-04-14T14:19:05.405Z,9.11
2023-04-14T14:21:32.980Z,9.16
2023-04-14T14:24:00.952Z,9.11
2023-04-14T14:26:29.001Z,9.19
2023-04-14T14:28:57.827Z,9.25
2023-04-14T14:31:25.721Z,9.27
2023-04-14T14:33:53.240Z,9.17
2023-04-14T14:36:20.746Z,9.19
2023-04-14T14:38:48.225Z,9.25
2023-04-14T14:41:15.744Z,9.24
2023-04-14T14:43:43.250Z,9.17
2023-04-14T14:46:12.095Z,9.29
2023-04-14T14:48:39.891Z,9.40
2023-04-14T14:51:07.371Z,9.37
2023-04-14T14:53:35.204Z,9.20
2023-04-14T14:56:02.762Z,9.13
2023-04-14T14:58:30.526Z,9.02
2023-04-14T15:00:58.131Z,9.03
2023-04-14T15:03:27.105Z,9.05
2023-04-14T15:05:54.724Z,9.06
2023-04-14T15:08:22.410Z,9.06
2023-04-14T15:10:51.196Z,8.94
2023-04-14T15:13:18.945Z,9.03
2023-04-14T15:15:46.439Z,9.02
2023-04-14T15:18:14.089Z,8.93
2023-04-14T15:20:43.222Z,8.82
2023-04-14T15:23:10.794Z,8.65
2023-04-14T15:25:38.335Z,8.61
2023-04-14T15:28:06.078Z,8.52
2023-04-14T15:30:33.610Z,8.62
2023-04-14T15:33:01.721Z,8.68
2023-04-14T15:35:29.241Z,8.42
2023-04-14T15:37:58.048Z,8.44
2023-04-14T15:40:25.538Z,8.42
2023-04-14T15:42:53.689Z,8.46
2023-04-14T15:45:21.538Z,8.32
2023-04-14T15:47:49.407Z,8.37
2023-04-14T15:50:18.897Z,8.45
2023-04-14T15:52:46.520Z,8.39
2023-04-14T15:55:15.404Z,8.29
2023-04-14T15:57:44.616Z,8.29
2023-04-14T16:00:13.783Z,8.28
2023-04-14T16:02:41.948Z,8.25
2023-04-14T16:05:10.119Z,8.27
2023-04-14T16:07:37.642Z,8.23
2023-04-14T16:10:06.311Z,8.22
2023-04-14T16:12:36.657Z,8.19
2023-04-14T16:15:07.800Z,8.20
2023-04-14T16:17:35.465Z,8.06
2023-04-14T16:20:03.649Z,8.16
2023-04-14T16:22:31.520Z,8.26
2023-04-14T16:24:59.027Z,8.30
2023-04-14T16:27:26.504Z,8.07
2023-04-14T16:29:55.336Z,8.04
2023-04-14T16:32:22.846Z,7.99
2023-04-14T16:34:50.586Z,8.03
2023-04-14T16:37:18.085Z,7.87
2023-04-14T16:39:46.253Z,7.88
2023-04-14T16:42:13.762Z,7.91
2023-04-14T16:44:42.812Z,8.01
2023-04-14T16:47:11.632Z,8.07
2023-04-14T16:49:39.134Z,8.11
2023-04-14T16:52:07.040Z,8.13
2023-04-14T16:54:35.012Z,8.18
2023-04-14T16:57:02.802Z,8.16
2023-04-14T16:59:30.542Z,8.08
2023-04-14T17:01:58.371Z,8.07
2023-04-14T17:04:27.545Z,8.04
2023-04-14T17:06:55.735Z,8.04
2023-04-14T17:09:23.344Z,8.05
2023-04-14T17:11:53.245Z,7.92
2023-04-14T17:14:20.866Z,7.90
2023-04-14T17:16:48.403Z,7.91
2023-04-14T17:19:16.965Z,7.92
2023-04-14T17:21:45.946Z,7.87
2023-04-14T17:24:13.406Z,7.91
2023-04-14T17:26:41.115Z,7.94
2023-04-14T17:29:09.147Z,7.95
2023-04-14T17:31:38.954Z,7.87
2023-04-14T17:34:10.631Z,7.87
2023-04-14T17:36:39.812Z,7.87
2023-04-14T17:39:10.306Z,7.88
2023-04-14T17:41:38.580Z,7.91
2023-04-14T17:44:06.097Z,7.93
2023-04-14T17:46:34.548Z,7.94
2023-04-14T17:49:02.539Z,7.91
2023-04-14T17:51:31.551Z,7.82
2023-04-14T17:53:59.494Z,7.82
2023-04-14T17:56:30.639Z,7.68
2023-04-14T17:58:58.446Z,7.61
2023-04-14T18:01:26.244Z,7.67
2023-04-14T18:03:54.128Z,7.70
2023-04-14T18:06:22.798Z,7.72
2023-04-14T18:08:50.406Z,7.73
2023-04-14T18:11:18.089Z,7.74
2023-04-14T18:13:46.929Z,7.73
2023-04-14T18:16:14.438Z,7.75
2023-04-14T18:18:42.325Z,7.73
2023-04-14T18:21:13.297Z,7.69
2023-04-14T18:23:40.821Z,7.69
2023-04-14T18:28:39.237Z,7.76
2023-04-14T18:31:08.678Z,7.69
2023-04-14T18:33:36.319Z,7.65
2023-04-14T18:36:05.133Z,7.64
2023-04-14T18:38:32.645Z,7.51
2023-04-14T18:41:04.926Z,7.45
2023-04-14T18:43:33.355Z,7.46
2023-04-14T18:46:01.138Z,7.47
2023-04-14T18:48:30.028Z,7.44
2023-04-14T18:50:59.125Z,7.49
2023-04-14T18:53:26.685Z,7.45
2023-04-14T18:55:54.212Z,7.38
2023-04-14T18:58:21.818Z,7.30
2023-04-14T19:00:49.502Z,7.35
2023-04-14T19:03:18.416Z,7.29
2023-04-14T19:05:47.291Z,7.31
2023-04-14T19:08:14.763Z,7.27
2023-04-14T19:10:42.556Z,7.28
2023-04-14T19:13:11.188Z,7.28
2023-04-14T19:15:38.759Z,7.32
2023-04-14T19:18:06.329Z,7.33
2023-04-14T19:20:37.013Z,7.27
2023-04-14T19:23:06.040Z,7.25
2023-04-14T19:25:38.587Z,7.30
2023-04-14T19:28:06.691Z,7.23
2023-04-14T19:30:34.269Z,7.25
2023-04-14T19:33:02.386Z,7.16
2023-04-14T19:35:31.530Z,7.16
2023-04-14T19:38:03.478Z,7.11
2023-04-14T19:40:38.124Z,7.16
2023-04-14T19:43:09.633Z,7.17
2023-04-14T19:45:37.310Z,7.06
2023-04-14T19:48:16.149Z,7.07
2023-04-14T19:50:52.038Z,6.81
2023-04-14T19:53:20.330Z,6.79
2023-04-14T19:55:53.640Z,6.79
2023-04-14T19:58:21.856Z,6.80
2023-04-14T20:00:51.504Z,6.87
2023-04-14T20:03:19.705Z,6.86
2023-04-14T20:05:51.390Z,6.91
2023-04-14T20:08:20.225Z,6.94
2023-04-14T20:10:51.041Z,6.98
2023-04-14T20:13:21.446Z,6.98
2023-04-14T20:15:49.229Z,6.88
2023-04-14T20:18:18.957Z,6.94
2023-04-14T20:20:48.215Z,6.87
2023-04-14T20:23:16.968Z,6.83
2023-04-14T20:25:45.559Z,6.82
2023-04-14T20:28:15.057Z,6.86
2023-04-14T20:30:47.987Z,6.89
2023-04-14T20:33:16.393Z,6.87
2023-04-14T20:35:44.022Z,6.86
2023-04-14T20:38:15.167Z,6.82
2023-04-14T20:40:43.458Z,6.87
2023-04-14T20:43:11.157Z,6.77
2023-04-14T20:45:39.224Z,6.84
2023-04-14T20:48:09.123Z,6.88
2023-04-14T20:50:37.204Z,6.83
2023-04-14T20:53:04.781Z,6.85
2023-04-14T20:55:32.269Z,6.68
2023-04-14T20:57:59.879Z,6.71
2023-04-14T21:00:27.379Z,6.74
2023-04-14T21:02:54.956Z,6.70
2023-04-14T21:05:25.397Z,6.71
2023-04-14T21:07:52.930Z,6.73
2023-04-14T21:10:20.721Z,6.69
2023-04-14T21:15:29.877Z,6.72
2023-04-14T21:15:52.017Z,6.72
2023-04-14T21:18:23.041Z,6.68
2023-04-14T21:20:51.902Z,6.73
2023-04-14T21:23:20.289Z,6.69
2023-04-14T21:25:48.009Z,6.75
2023-04-14T21:28:16.285Z,6.80
2023-04-14T21:30:44.350Z,6.81
2023-04-14T21:33:11.926Z,6.85
2023-04-14T21:35:39.528Z,6.81
2023-04-14T21:38:09.511Z,6.78
2023-04-14T21:40:37.035Z,6.77
2023-04-14T21:43:04.560Z,6.78
2023-04-14T21:45:32.836Z,6.73
2023-04-14T21:48:00.520Z,6.74
2023-04-14T21:50:28.195Z,6.65
2023-04-14T21:52:56.445Z,6.62
2023-04-14T21:55:25.361Z,6.56
2023-04-14T21:57:54.419Z,6.59
2023-04-14T22:00:22.116Z,6.59
2023-04-14T22:02:49.842Z,6.62
2023-04-14T22:05:17.544Z,6.61
2023-04-14T22:07:45.497Z,6.67
2023-04-14T22:10:13.025Z,6.57
2023-04-14T22:12:42.435Z,6.59
2023-04-14T22:15:10.873Z,6.57
2023-04-14T22:17:39.359Z,6.57
2023-04-14T22:20:07.827Z,6.59
2023-04-14T22:22:35.419Z,6.43
2023-04-14T22:25:03.626Z,6.43
2023-04-14T22:27:31.362Z,6.43
2023-04-14T22:30:00.241Z,6.46
2023-04-14T22:32:28.078Z,6.45
2023-04-14T22:34:55.576Z,6.43
2023-04-14T22:37:23.087Z,6.52
2023-04-14T22:39:50.805Z,6.55
2023-04-14T22:42:18.314Z,6.47
2023-04-14T22:44:47.962Z,6.50
2023-04-14T22:47:16.950Z,6.44
2023-04-14T22:49:44.540Z,6.39
2023-04-14T22:52:12.297Z,6.46
2023-04-14T22:54:39.860Z,6.40
2023-04-14T22:57:07.339Z,6.48
2023-04-14T22:59:34.843Z,6.45
2023-04-14T23:02:02.458Z,6.46
2023-04-14T23:04:31.400Z,6.48
2023-04-14T23:06:59.215Z,6.46
2023-04-14T23:09:30.247Z,6.41
2023-04-14T23:11:57.807Z,6.35
2023-04-14T23:14:25.525Z,6.22
2023-04-14T23:16:53.157Z,6.23
2023-04-14T23:19:20.837Z,6.19
2023-04-14T23:21:50.943Z,6.24
2023-04-14T23:24:18.550Z,6.27
2023-04-14T23:26:46.519Z,6.30
2023-04-14T23:29:14.000Z,6.26
2023-04-14T23:31:41.483Z,6.34
2023-04-14T23:34:10.775Z,6.32
2023-04-14T23:36:38.563Z,6.33
2023-04-14T23:39:07.511Z,6.37
2023-04-14T23:41:35.076Z,6.31
2023-04-14T23:44:02.719Z,6.39
2023-04-14T23:46:30.390Z,6.39
2023-04-14T23:48:59.049Z,6.40
2023-04-14T23:51:37.996Z,6.32
2023-04-14T23:54:08.188Z,6.37
2023-04-14T23:56:35.729Z,6.30
2023-04-14T23:59:03.568Z,6.28
